createdAt,value
2018-07-11T00:00:14.798Z,1003.07
2018-07-11T00:01:14.809Z,1003.09
2018-07-11T00:02:14.800Z,1003.12
2018-07-11T00:03:14.839Z,1003.12
2018-07-11T00:04:14.807Z,1003.10
2018-07-11T00:05:14.802Z,1003.12
2018-07-11T00:06:14.802Z,1003.10
2018-07-11T00:07:14.802Z,1003.08
2018-07-11T00:08:14.811Z,1003.11
2018-07-11T00:09:14.814Z,1003.11
2018-07-11T00:10:14.850Z,1003.11
2018-07-11T00:11:14.815Z,1003.14
2018-07-11T00:12:14.839Z,1003.11
2018-07-11T00:13:14.834Z,1003.07
2018-07-11T00:14:14.829Z,1003.04
2018-07-11T00:15:14.828Z,1003.07
2018-07-11T00:16:14.843Z,1003.07
2018-07-11T00:17:14.835Z,1003.01
2018-07-11T00:18:14.837Z,1003.04
2018-07-11T00:19:14.830Z,1003.07
2018-07-11T00:20:14.893Z,1003.04
2018-07-11T00:21:14.836Z,1003.07
2018-07-11T00:22:14.830Z,1003.06
2018-07-11T00:23:14.843Z,1003.05
2018-07-11T00:24:14.840Z,1003.03
2018-07-11T00:25:14.844Z,1003.05
2018-07-11T00:26:14.847Z,1003.05
2018-07-11T00:27:14.855Z,1003.07
2018-07-11T00:28:14.860Z,1003.10
2018-07-11T00:29:14.851Z,1003.06
2018-07-11T00:30:14.848Z,1003.07
2018-07-11T00:31:14.850Z,1003.03
2018-07-11T00:32:14.853Z,1003.03
2018-07-11T00:33:14.854Z,1002.99
2018-07-11T00:34:14.875Z,1003.01
2018-07-11T00:35:14.860Z,1003.01
2018-07-11T00:36:14.872Z,1003.03
2018-07-11T00:37:14.928Z,1003.02
2018-07-11T00:38:14.864Z,1003.02
2018-07-11T00:39:14.868Z,1003.03
2018-07-11T00:40:14.865Z,1002.97
2018-07-11T00:41:15.888Z,1002.97
2018-07-11T00:42:15.733Z,1002.97
2018-07-11T00:43:14.872Z,1002.96
2018-07-11T00:44:15.001Z,1002.94
2018-07-11T00:45:14.888Z,1002.96
2018-07-11T00:46:15.046Z,1002.98
2018-07-11T00:47:14.889Z,1002.92
2018-07-11T00:48:14.989Z,1002.93
2018-07-11T00:49:14.882Z,1002.95
2018-07-11T00:50:14.884Z,1002.93
2018-07-11T00:52:36.469Z,1002.98
2018-07-11T00:53:36.491Z,1003.00
2018-07-11T00:55:29.890Z,1002.94
2018-07-11T00:56:29.871Z,1002.95
2018-07-11T00:57:29.891Z,1002.96
2018-07-11T00:58:29.902Z,1002.99
2018-07-11T00:59:29.914Z,1002.97
2018-07-11T01:00:29.914Z,1002.95
2018-07-11T01:01:29.854Z,1002.99
2018-07-11T01:02:29.861Z,1002.96
2018-07-11T01:03:29.864Z,1002.93
2018-07-11T01:04:29.887Z,1002.97
2018-07-11T01:05:29.900Z,1002.93
2018-07-11T01:06:30.330Z,1002.99
2018-07-11T01:07:29.870Z,1003.00
2018-07-11T01:08:29.872Z,1003.00
2018-07-11T01:09:29.875Z,1003.03
2018-07-11T01:10:29.880Z,1003.03
2018-07-11T01:11:29.873Z,1002.99
2018-07-11T01:12:29.880Z,1002.99
2018-07-11T01:13:29.916Z,1003.01
2018-07-11T01:14:29.887Z,1002.99
2018-07-11T01:15:29.891Z,1002.97
2018-07-11T01:16:29.890Z,1002.98
2018-07-11T01:17:29.884Z,1002.93
2018-07-11T01:18:29.914Z,1002.95
2018-07-11T01:19:29.918Z,1002.96
2018-07-11T01:20:29.890Z,1002.95
2018-07-11T01:21:29.896Z,1002.98
2018-07-11T01:22:29.892Z,1002.96
2018-07-11T01:23:29.896Z,1002.95
2018-07-11T01:24:29.911Z,1002.90
2018-07-11T01:25:29.912Z,1002.93
2018-07-11T01:26:29.902Z,1002.95
2018-07-11T01:27:38.885Z,1002.95
2018-07-11T01:29:23.357Z,1002.97
2018-07-11T01:30:23.328Z,1002.98
2018-07-11T01:31:23.346Z,1002.98
2018-07-11T01:32:23.345Z,1003.00
2018-07-11T01:33:23.351Z,1002.94
2018-07-11T01:34:23.405Z,1003.00
2018-07-11T01:35:23.324Z,1003.01
2018-07-11T01:36:23.320Z,1003.01
2018-07-11T01:37:23.335Z,1003.06
2018-07-11T01:38:23.330Z,1003.05
2018-07-11T01:39:23.329Z,1003.07
2018-07-11T01:40:23.366Z,1003.07
2018-07-11T01:41:23.386Z,1003.07
2018-07-11T01:42:23.329Z,1003.07
2018-07-11T01:43:23.337Z,1003.09
2018-07-11T01:44:23.336Z,1003.10
2018-07-11T01:45:23.349Z,1003.09
2018-07-11T01:46:23.342Z,1003.09
2018-07-11T01:47:23.349Z,1003.07
2018-07-11T01:48:23.353Z,1003.07
2018-07-11T01:49:23.340Z,1003.06
2018-07-11T01:50:23.346Z,1003.07
2018-07-11T01:51:23.344Z,1003.03
2018-07-11T01:52:23.342Z,1003.04
2018-07-11T01:53:23.348Z,1003.01
2018-07-11T01:54:23.349Z,1003.04
2018-07-11T01:55:23.344Z,1003.01
2018-07-11T01:56:23.362Z,1003.00
2018-07-11T01:57:23.357Z,1003.01
2018-07-11T01:58:23.361Z,1002.96
2018-07-11T01:59:23.358Z,1002.97
2018-07-11T02:00:23.359Z,1002.99
2018-07-11T02:01:23.364Z,1002.97
2018-07-11T02:02:23.364Z,1002.97
2018-07-11T02:03:23.368Z,1003.00
2018-07-11T02:04:23.369Z,1002.96
2018-07-11T02:05:23.378Z,1002.97
2018-07-11T02:06:23.413Z,1003.01
2018-07-11T02:07:23.380Z,1003.03
2018-07-11T02:08:23.371Z,1002.97
2018-07-11T02:09:23.384Z,1003.02
2018-07-11T02:10:23.374Z,1003.03
2018-07-11T02:11:23.376Z,1003.01
2018-07-11T02:12:23.376Z,1003.05
2018-07-11T02:13:32.086Z,1003.04
2018-07-11T02:15:16.790Z,1003.05
2018-07-11T02:16:16.801Z,1003.01
2018-07-11T02:17:16.804Z,1003.03
2018-07-11T02:18:16.800Z,1002.97
2018-07-11T02:19:16.898Z,1003.02
2018-07-11T02:20:16.792Z,1003.01
2018-07-11T02:21:16.791Z,1003.01
2018-07-11T02:22:16.786Z,1003.02
2018-07-11T02:23:16.792Z,1003.05
2018-07-11T02:24:16.788Z,1003.04
2018-07-11T02:25:16.796Z,1003.05
2018-07-11T02:26:16.865Z,1003.04
2018-07-11T02:27:16.814Z,1003.04
2018-07-11T02:28:16.827Z,1003.08
2018-07-11T02:29:16.804Z,1003.04
2018-07-11T02:30:16.828Z,1003.06
2018-07-11T02:31:16.814Z,1003.08
2018-07-11T02:32:16.813Z,1003.05
2018-07-11T02:33:16.823Z,1003.07
2018-07-11T02:34:16.832Z,1003.09
2018-07-11T02:35:16.822Z,1003.05
2018-07-11T02:36:16.847Z,1003.12
2018-07-11T02:37:16.813Z,1003.10
2018-07-11T02:38:16.816Z,1003.07
2018-07-11T02:39:16.810Z,1003.08
2018-07-11T02:40:16.879Z,1003.09
2018-07-11T02:41:16.836Z,1003.11
2018-07-11T02:42:16.822Z,1003.07
2018-07-11T02:43:16.822Z,1003.08
2018-07-11T02:44:16.827Z,1003.07
2018-07-11T02:45:16.855Z,1003.10
2018-07-11T02:46:16.832Z,1003.09
2018-07-11T02:47:16.851Z,1003.11
2018-07-11T02:48:16.838Z,1003.07
2018-07-11T02:49:16.829Z,1003.08
2018-07-11T02:50:16.826Z,1003.05
2018-07-11T02:51:16.845Z,1003.06
2018-07-11T02:52:16.844Z,1003.04
2018-07-11T02:53:16.849Z,1003.04
2018-07-11T02:54:16.838Z,1003.05
2018-07-11T02:55:16.859Z,1003.04
2018-07-11T02:56:16.863Z,1003.08
2018-07-11T02:57:16.844Z,1003.11
2018-07-11T02:58:16.842Z,1003.09
2018-07-11T03:18:11.231Z,1003.03
2018-07-11T03:19:11.111Z,1003.02
2018-07-11T03:20:11.109Z,1002.99
2018-07-11T03:21:11.101Z,1003.06
2018-07-11T03:22:11.092Z,1003.07
2018-07-11T03:23:11.125Z,1003.06
2018-07-11T03:24:11.125Z,1003.08
2018-07-11T03:25:11.108Z,1003.07
2018-07-11T03:26:11.131Z,1003.11
2018-07-11T03:27:19.785Z,1003.12
2018-07-11T03:29:04.518Z,1003.13
2018-07-11T03:30:04.509Z,1003.08
